Time;durP1;ratioP1;P1;durP2;ratioP2;P2;SDS_P1;SDS_P2;PMS_P1;PMS_P2;Temp;Humidity;BMP_temperature;BMP_pressure;BME280_temperature;BME280_humidity;BME280_pressure;Samples;Min_cycle;Max_cycle;Signal;HPM_P1;HPM_P2
2023/01/27 00:02:10;;;;;;;13.55;5.13;;;;;;;;;;5008883;28;20038;-62
2023/01/27 00:04:35;;;;;;;11.70;5.15;;;;;;;;;;5011604;28;20077;-62
2023/01/27 00:07:01;;;;;;;12.60;4.80;;;;;;;;;;5010915;28;20455;-62
2023/01/27 00:09:26;;;;;;;10.50;4.85;;;;;;;;;;5010507;28;20034;-62
2023/01/27 00:14:35;;;;;;;13.70;4.97;;;;;;;;;;5010282;28;20060;-62
2023/01/27 00:17:01;;;;;;;14.10;5.07;;;;;;;;;;5010363;28;20033;-62
2023/01/27 00:19:26;;;;;;;13.68;5.22;;;;;;;;;;5010541;28;20034;-62
2023/01/27 00:24:35;;;;;;;12.38;5.45;;;;;;;;;;5009731;28;20084;-62
2023/01/27 00:27:07;;;;;;;13.43;5.07;;;;;;;;;;5008535;28;20062;-61
2023/01/27 00:29:36;;;;;;;13.38;5.38;;;;;;;;;;5002916;28;20152;-61
2023/01/27 00:34:46;;;;;;;12.25;5.65;;;;;;;;;;4997578;28;20120;-61
2023/01/27 00:37:12;;;;;;;13.27;5.57;;;;;;;;;;5008640;28;20132;-61
2023/01/27 00:39:37;;;;;;;13.65;5.25;;;;;;;;;;5007809;28;20525;-61
2023/01/27 00:42:03;;;;;;;13.68;5.60;;;;;;;;;;5011219;28;20041;-63
2023/01/27 00:44:28;;;;;;;15.52;5.53;;;;;;;;;;5010573;28;20033;-63
2023/01/27 00:46:53;;;;;;;14.43;5.53;;;;;;;;;;5009767;28;20053;-62
2023/01/27 00:49:19;;;;;;;12.75;5.22;;;;;;;;;;5008921;28;20464;-63
2023/01/27 00:51:44;;;;;;;12.75;4.90;;;;;;;;;;5011199;28;20030;-62
2023/01/27 00:54:10;;;;;;;12.63;5.50;;;;;;;;;;5009855;28;20046;-62
2023/01/27 00:56:36;;;;;;;13.45;5.57;;;;;;;;;;5009704;28;20030;-60
2023/01/27 00:59:03;;;;;;;12.95;5.95;;;;;;;;;;5009335;28;20363;-60
2023/01/27 01:01:29;;;;;;;18.88;6.55;;;;;;;;;;5010467;28;20562;-62
2023/01/27 01:03:54;;;;;;;15.15;6.25;;;;;;;;;;5010303;28;20034;-62
2023/01/27 01:06:19;;;;;;;14.70;6.38;;;;;;;;;;5009661;28;20091;-60
2023/01/27 01:08:45;;;;;;;13.63;7.20;;;;;;;;;;5009349;28;20037;-61
2023/01/27 01:11:14;;;;;;;17.73;6.90;;;;;;;;;;5008490;28;20060;-63
2023/01/27 01:13:41;;;;;;;14.40;7.18;;;;;;;;;;5010767;28;20044;-61
2023/01/27 01:16:12;;;;;;;16.60;7.78;;;;;;;;;;5008934;28;20116;-62
2023/01/27 01:18:37;;;;;;;;;;;;;;;;;;5011067;28;20053;-60
2023/01/27 01:21:05;;;;;;;18.77;7.82;;;;;;;;;;5010452;28;19913;-62
2023/01/27 01:23:31;;;;;;;16.55;8.30;;;;;;;;;;5010642;28;20463;-62
2023/01/27 01:25:57;;;;;;;20.38;8.90;;;;;;;;;;5013182;28;20036;-62
2023/01/27 01:28:23;;;;;;;18.30;8.48;;;;;;;;;;5013090;28;20493;-61
2023/01/27 01:30:49;;;;;;;19.35;8.50;;;;;;;;;;5013996;28;20034;-61
2023/01/27 01:33:15;;;;;;;18.00;8.30;;;;;;;;;;5013388;28;20060;-62
2023/01/27 01:35:41;;;;;;;22.50;9.20;;;;;;;;;;5010854;28;20628;-61
2023/01/27 01:38:06;;;;;;;19.23;8.95;;;;;;;;;;4999147;28;20108;-61
2023/01/27 01:40:32;;;;;;;20.55;9.60;;;;;;;;;;5013416;28;20030;-61
2023/01/27 01:43:01;;;;;;;19.23;8.82;;;;;;;;;;5013006;28;20069;-61
2023/01/27 01:45:32;;;;;;;21.13;9.70;;;;;;;;;;5010536;28;20034;-61
2023/01/27 01:48:02;;;;;;;18.60;9.30;;;;;;;;;;5014747;28;20045;-61
2023/01/27 01:50:27;;;;;;;21.45;9.43;;;;;;;;;;5010874;28;20942;-61
2023/01/27 01:52:53;;;;;;;24.25;10.63;;;;;;;;;;5015023;28;20530;-60
2023/01/27 01:55:20;;;;;;;23.92;9.98;;;;;;;;;;5010669;28;20034;-60
2023/01/27 01:57:45;;;;;;;22.85;10.05;;;;;;;;;;5013939;28;20045;-60
2023/01/27 02:00:12;;;;;;;21.83;9.88;;;;;;;;;;5011005;28;20030;-61
2023/01/27 02:02:39;;;;;;;26.05;9.57;;;;;;;;;;5013978;28;20038;-61
2023/01/27 02:05:10;;;;;;;19.67;8.95;;;;;;;;;;5011678;28;20467;-62
2023/01/27 02:07:43;;;;;;;23.35;9.68;;;;;;;;;;5010083;28;20026;-62
2023/01/27 02:10:11;;;;;;;19.35;8.82;;;;;;;;;;5013994;28;20037;-62
2023/01/27 02:12:37;;;;;;;28.27;9.43;;;;;;;;;;5011685;28;20025;-61
2023/01/27 02:15:04;;;;;;;19.80;9.45;;;;;;;;;;5010607;28;20065;-61
2023/01/27 02:17:30;;;;;;;24.35;8.73;;;;;;;;;;5013306;28;20127;-62
2023/01/27 02:20:20;;;;;;;21.08;8.70;;;;;;;;;;5012188;28;20054;-61
2023/01/27 02:22:55;;;;;;;20.93;8.77;;;;;;;;;;5008116;28;20506;-62
2023/01/27 02:25:33;;;;;;;21.10;9.02;;;;;;;;;;5009661;28;20267;-61
2023/01/27 02:28:00;;;;;;;21.27;9.02;;;;;;;;;;4995633;28;20045;-61
2023/01/27 02:30:25;;;;;;;21.80;8.05;;;;;;;;;;5007222;28;20077;-62
2023/01/27 02:32:51;;;;;;;20.83;8.63;;;;;;;;;;5013201;28;20033;-63
2023/01/27 02:35:24;;;;;;;19.88;8.90;;;;;;;;;;5007654;28;20471;-62
2023/01/27 02:37:50;;;;;;;20.75;9.20;;;;;;;;;;5011100;28;20049;-63
2023/01/27 02:40:16;;;;;;;20.52;9.07;;;;;;;;;;5009998;28;20034;-62
2023/01/27 02:42:42;;;;;;;20.08;8.68;;;;;;;;;;5013999;28;20049;-62
2023/01/27 02:45:07;;;;;;;18.63;8.40;;;;;;;;;;5010971;28;20046;-63
2023/01/27 02:47:33;;;;;;;20.52;8.27;;;;;;;;;;5012145;28;20088;-62
2023/01/27 02:49:58;;;;;;;19.38;9.20;;;;;;;;;;5012954;28;20088;-63
2023/01/27 02:52:24;;;;;;;18.63;8.55;;;;;;;;;;5010236;28;20455;-64
2023/01/27 02:54:49;;;;;;;20.20;8.73;;;;;;;;;;5013560;28;20149;-63
2023/01/27 02:57:14;;;;;;;21.45;8.48;;;;;;;;;;5008620;28;20489;-62
2023/01/27 02:59:40;;;;;;;19.13;8.38;;;;;;;;;;5013133;28;20109;-62
2023/01/27 03:02:06;;;;;;;20.63;8.50;;;;;;;;;;5010390;28;20037;-63
2023/01/27 03:04:31;;;;;;;20.15;8.27;;;;;;;;;;5012086;28;20119;-62
2023/01/27 03:06:57;;;;;;;26.83;8.93;;;;;;;;;;5010548;28;20133;-62
2023/01/27 03:09:23;;;;;;;21.52;8.52;;;;;;;;;;5010336;28;20053;-61
2023/01/27 03:20:00;;;;;;;18.92;8.68;;;;;;;;;;5012569;28;20052;-62
2023/01/27 03:22:25;;;;;;;19.60;8.15;;;;;;;;;;5010323;28;20030;-62
2023/01/27 03:24:51;;;;;;;19.98;8.52;;;;;;;;;;5010917;28;20025;-62
2023/01/27 03:27:17;;;;;;;19.10;8.25;;;;;;;;;;5010262;28;20109;-61
2023/01/27 03:29:54;;;;;;;20.65;8.23;;;;;;;;;;5012960;28;20053;-60
2023/01/27 03:32:20;;;;;;;19.02;8.30;;;;;;;;;;5010143;28;20030;-61
2023/01/27 03:34:45;;;;;;;22.80;8.52;;;;;;;;;;5010370;28;20395;-62
2023/01/27 03:48:07;;;;;;;22.08;9.15;;;;;;;;;;5008512;28;20068;-61
2023/01/27 03:50:42;;;;;;;20.25;8.88;;;;;;;;;;5011247;28;20030;-61
2023/01/27 03:53:08;;;;;;;20.23;8.05;;;;;;;;;;5011315;28;20038;-61
2023/01/27 03:55:35;;;;;;;24.67;9.40;;;;;;;;;;5007547;28;20101;-60
2023/01/27 03:58:22;;;;;;;22.02;8.98;;;;;;;;;;5012484;28;20471;-61
2023/01/27 04:00:52;;;;;;;24.52;9.45;;;;;;;;;;5010913;28;20056;-61
2023/01/27 04:08:53;;;;;;;24.92;8.88;;;;;;;;;;5010697;28;20116;-61
2023/01/27 04:14:04;;;;;;;27.67;8.90;;;;;;;;;;5014345;28;20049;-61
2023/01/27 04:16:30;;;;;;;24.50;8.80;;;;;;;;;;5007834;28;20042;-61
2023/01/27 04:18:57;;;;;;;22.48;8.88;;;;;;;;;;5011673;28;20026;-61
2023/01/27 04:21:24;;;;;;;21.88;8.75;;;;;;;;;;5009098;28;20033;-61
2023/01/27 04:23:50;;;;;;;25.02;8.88;;;;;;;;;;5011894;28;20124;-62
2023/01/27 04:26:15;;;;;;;24.80;9.48;;;;;;;;;;5007990;28;20118;-62
2023/01/27 04:28:41;;;;;;;22.90;8.88;;;;;;;;;;5009835;28;20375;-63
2023/01/27 04:31:06;;;;;;;22.77;9.05;;;;;;;;;;5009955;28;20036;-62
2023/01/27 04:33:32;;;;;;;24.70;9.45;;;;;;;;;;5010088;28;20117;-62
2023/01/27 04:35:57;;;;;;;22.85;9.18;;;;;;;;;;5005162;28;20061;-61
2023/01/27 04:38:23;;;;;;;18.33;8.07;;;;;;;;;;5010128;28;20041;-61
2023/01/27 04:40:48;;;;;;;23.45;9.20;;;;;;;;;;5009960;28;20041;-61
2023/01/27 04:43:13;;;;;;;19.77;8.30;;;;;;;;;;5010137;28;20070;-62
2023/01/27 04:45:39;;;;;;;19.80;8.23;;;;;;;;;;5009225;28;20118;-61
2023/01/27 04:48:07;;;;;;;22.52;9.27;;;;;;;;;;5011728;28;20066;-61
2023/01/27 04:50:33;;;;;;;20.90;8.57;;;;;;;;;;5007804;28;20045;-63
2023/01/27 04:52:58;;;;;;;25.40;8.65;;;;;;;;;;5011682;28;20034;-61
2023/01/27 04:55:23;;;;;;;24.80;8.82;;;;;;;;;;5007699;28;20185;-61
2023/01/27 04:57:49;;;;;;;22.33;8.80;;;;;;;;;;5011759;28;20394;-61
2023/01/27 05:00:15;;;;;;;23.60;8.90;;;;;;;;;;5011545;28;20088;-61
2023/01/27 05:02:40;;;;;;;23.13;8.40;;;;;;;;;;5010297;28;20025;-61
2023/01/27 05:05:06;;;;;;;23.27;8.07;;;;;;;;;;5014449;28;20041;-60
2023/01/27 05:07:31;;;;;;;23.52;8.40;;;;;;;;;;5014090;28;20048;-60
2023/01/27 05:09:57;;;;;;;21.05;7.82;;;;;;;;;;5014205;28;20096;-61
2023/01/27 05:12:23;;;;;;;17.90;7.95;;;;;;;;;;5011420;28;20030;-60
2023/01/27 05:14:48;;;;;;;19.40;8.50;;;;;;;;;;5013736;28;20045;-61
2023/01/27 05:17:13;;;;;;;17.52;8.15;;;;;;;;;;5013062;28;20034;-61
2023/01/27 05:19:39;;;;;;;21.17;8.82;;;;;;;;;;5013346;28;20136;-61
2023/01/27 05:22:04;;;;;;;18.65;8.20;;;;;;;;;;5009378;28;20442;-62
2023/01/27 05:24:30;;;;;;;18.63;8.27;;;;;;;;;;4994817;28;20038;-63
2023/01/27 05:26:56;;;;;;;19.27;8.57;;;;;;;;;;4999885;28;20041;-62
2023/01/27 05:29:22;;;;;;;21.30;8.88;;;;;;;;;;5013524;28;20081;-61
2023/01/27 05:31:47;;;;;;;22.17;8.98;;;;;;;;;;5011722;28;21619;-62
2023/01/27 05:34:13;;;;;;;20.92;8.65;;;;;;;;;;5013600;28;20044;-62
2023/01/27 05:36:38;;;;;;;20.20;8.52;;;;;;;;;;5010579;28;20213;-62
2023/01/27 05:39:04;;;;;;;18.40;8.48;;;;;;;;;;5013536;28;20044;-62
2023/01/27 05:41:30;;;;;;;18.15;8.00;;;;;;;;;;5012748;28;20053;-63
2023/01/27 05:43:56;;;;;;;18.73;7.57;;;;;;;;;;5014396;28;20030;-61
2023/01/27 05:46:28;;;;;;;16.02;7.53;;;;;;;;;;5012276;28;20042;-61
2023/01/27 05:48:56;;;;;;;15.98;7.70;;;;;;;;;;5014237;28;20034;-61
2023/01/27 05:51:24;;;;;;;17.15;7.80;;;;;;;;;;5011483;28;20123;-61
2023/01/27 05:53:49;;;;;;;15.70;7.25;;;;;;;;;;5013016;28;20033;-61
2023/01/27 05:56:17;;;;;;;16.20;7.20;;;;;;;;;;5008629;28;20048;-61
2023/01/27 05:58:43;;;;;;;17.52;7.50;;;;;;;;;;5012518;28;20041;-61
2023/01/27 06:01:14;;;;;;;15.30;7.10;;;;;;;;;;5013247;28;20049;-61
2023/01/27 06:03:40;;;;;;;14.93;7.50;;;;;;;;;;5013179;28;20034;-60
2023/01/27 06:06:08;;;;;;;16.92;7.40;;;;;;;;;;5010696;28;20069;-61
2023/01/27 06:08:34;;;;;;;13.77;6.85;;;;;;;;;;5011318;28;20504;-61
2023/01/27 06:11:00;;;;;;;15.90;7.38;;;;;;;;;;5011938;28;20052;-61
2023/01/27 06:13:26;;;;;;;14.68;7.57;;;;;;;;;;5013853;28;20390;-62
2023/01/27 06:15:52;;;;;;;14.63;6.75;;;;;;;;;;5002213;28;20528;-61
2023/01/27 06:18:18;;;;;;;13.27;6.53;;;;;;;;;;4994571;28;20029;-61
2023/01/27 06:20:44;;;;;;;14.50;6.47;;;;;;;;;;5003172;28;20646;-62
2023/01/27 06:23:12;;;;;;;15.02;6.63;;;;;;;;;;5012938;28;20463;-61
2023/01/27 06:25:43;;;;;;;13.77;7.00;;;;;;;;;;5003647;28;20039;-62
2023/01/27 06:28:08;;;;;;;12.80;6.72;;;;;;;;;;4995099;28;20475;-61
2023/01/27 06:30:36;;;;;;;11.57;6.10;;;;;;;;;;5003046;28;20052;-61
2023/01/27 06:33:02;;;;;;;12.35;6.63;;;;;;;;;;5011312;28;20069;-61
2023/01/27 06:35:28;;;;;;;11.68;5.82;;;;;;;;;;5011396;28;20070;-62
2023/01/27 06:37:53;;;;;;;12.45;6.43;;;;;;;;;;5013960;28;20561;-62
2023/01/27 06:40:18;;;;;;;11.60;5.72;;;;;;;;;;5006201;28;20117;-60
2023/01/27 06:42:47;;;;;;;11.15;5.82;;;;;;;;;;5005583;28;20177;-60
2023/01/27 06:45:12;;;;;;;10.95;5.47;;;;;;;;;;5013356;28;20040;-61
2023/01/27 06:47:39;;;;;;;11.48;5.93;;;;;;;;;;5012201;28;20041;-62
2023/01/27 06:50:08;;;;;;;9.93;5.40;;;;;;;;;;5013319;28;20118;-62
2023/01/27 06:52:34;;;;;;;12.27;6.10;;;;;;;;;;5011714;28;20058;-62
2023/01/27 06:55:00;;;;;;;10.93;6.45;;;;;;;;;;5003575;28;20076;-63
2023/01/27 06:57:25;;;;;;;11.35;6.00;;;;;;;;;;4993659;28;20041;-62
2023/01/27 06:59:50;;;;;;;13.15;6.35;;;;;;;;;;5010442;28;20062;-61
2023/01/27 07:02:16;;;;;;;12.95;6.47;;;;;;;;;;5013021;28;20034;-63
2023/01/27 07:04:41;;;;;;;12.70;6.63;;;;;;;;;;5010032;28;20455;-63
2023/01/27 07:07:07;;;;;;;13.98;7.35;;;;;;;;;;5008167;28;20088;-62
2023/01/27 07:09:32;;;;;;;14.23;7.30;;;;;;;;;;5009986;28;20501;-62
2023/01/27 07:11:57;;;;;;;12.68;6.50;;;;;;;;;;5010011;28;20046;-62
2023/01/27 07:14:23;;;;;;;13.73;7.50;;;;;;;;;;5011244;28;20038;-61
2023/01/27 07:16:48;;;;;;;13.60;7.10;;;;;;;;;;5011128;28;20065;-61
2023/01/27 07:19:15;;;;;;;14.48;7.72;;;;;;;;;;5011814;28;20022;-65
2023/01/27 07:21:41;;;;;;;13.63;7.97;;;;;;;;;;5011343;28;20372;-61
2023/01/27 07:24:06;;;;;;;14.57;7.50;;;;;;;;;;5010343;28;20060;-62
2023/01/27 07:26:32;;;;;;;15.85;7.60;;;;;;;;;;5011579;28;20463;-62
2023/01/27 07:28:57;;;;;;;19.02;8.35;;;;;;;;;;5002405;28;20165;-62
2023/01/27 07:31:22;;;;;;;16.95;8.35;;;;;;;;;;5009367;28;20033;-63
2023/01/27 07:33:48;;;;;;;18.10;8.82;;;;;;;;;;5010717;28;20061;-62
2023/01/27 07:36:13;;;;;;;14.88;7.75;;;;;;;;;;5012480;28;20058;-63
2023/01/27 07:38:41;;;;;;;15.18;8.00;;;;;;;;;;5010714;28;20061;-62
2023/01/27 07:41:07;;;;;;;14.57;7.40;;;;;;;;;;5011606;28;20108;-61
2023/01/27 07:43:33;;;;;;;15.88;8.15;;;;;;;;;;5010740;28;20141;-62
2023/01/27 07:45:59;;;;;;;14.85;7.30;;;;;;;;;;5010165;28;20038;-61
2023/01/27 07:48:24;;;;;;;14.88;7.53;;;;;;;;;;5009782;28;20113;-61
2023/01/27 07:50:50;;;;;;;16.08;8.15;;;;;;;;;;5011528;28;20033;-62
2023/01/27 07:53:15;;;;;;;16.67;8.57;;;;;;;;;;5010909;28;20522;-62
2023/01/27 07:55:41;;;;;;;15.43;7.97;;;;;;;;;;4996444;28;20487;-63
2023/01/27 07:58:07;;;;;;;14.40;7.80;;;;;;;;;;5008383;28;20449;-60
2023/01/27 08:00:33;;;;;;;18.05;8.27;;;;;;;;;;5009753;28;20034;-62
2023/01/27 08:02:59;;;;;;;13.98;7.68;;;;;;;;;;5012104;28;20030;-62
2023/01/27 08:05:26;;;;;;;17.15;7.65;;;;;;;;;;5006897;28;20564;-62
2023/01/27 08:07:53;;;;;;;14.35;7.60;;;;;;;;;;5008867;28;20108;-62
2023/01/27 08:10:19;;;;;;;15.35;7.55;;;;;;;;;;5010351;28;20034;-62
2023/01/27 08:12:45;;;;;;;14.63;7.43;;;;;;;;;;5011444;28;20026;-62
2023/01/27 08:15:10;;;;;;;15.20;7.80;;;;;;;;;;5010119;28;20121;-62
2023/01/27 08:17:36;;;;;;;15.07;8.13;;;;;;;;;;5008453;28;20136;-62
2023/01/27 08:20:01;;;;;;;15.52;8.32;;;;;;;;;;5009340;28;20124;-62
2023/01/27 08:22:28;;;;;;;13.68;7.07;;;;;;;;;;5011788;28;20109;-62
2023/01/27 08:24:53;;;;;;;15.55;7.18;;;;;;;;;;5010594;28;20557;-63
2023/01/27 08:27:19;;;;;;;12.05;7.13;;;;;;;;;;5009399;28;20120;-62
2023/01/27 08:29:44;;;;;;;15.25;7.82;;;;;;;;;;5011027;28;20386;-62
2023/01/27 08:32:10;;;;;;;13.27;7.25;;;;;;;;;;5009200;28;20057;-61
2023/01/27 08:34:37;;;;;;;13.90;7.15;;;;;;;;;;5007841;28;20489;-62
2023/01/27 08:37:03;;;;;;;14.25;7.18;;;;;;;;;;5010183;28;20457;-62
2023/01/27 08:39:28;;;;;;;12.35;7.43;;;;;;;;;;5009970;28;20387;-63
2023/01/27 08:41:54;;;;;;;13.57;6.97;;;;;;;;;;5010947;28;20048;-63
2023/01/27 08:44:19;;;;;;;12.00;6.75;;;;;;;;;;5009211;28;20022;-62
2023/01/27 08:46:45;;;;;;;12.95;6.55;;;;;;;;;;5010558;28;20041;-62
2023/01/27 08:49:12;;;;;;;13.95;6.95;;;;;;;;;;5010826;28;20040;-61
2023/01/27 08:51:38;;;;;;;13.20;7.07;;;;;;;;;;5010888;28;20429;-62
2023/01/27 08:54:04;;;;;;;13.43;7.07;;;;;;;;;;5008985;28;20117;-62
2023/01/27 08:56:29;;;;;;;13.15;6.82;;;;;;;;;;5009606;28;20034;-62
2023/01/27 08:58:55;;;;;;;11.40;6.72;;;;;;;;;;5008171;28;20029;-61
2023/01/27 09:01:21;;;;;;;18.02;8.27;;;;;;;;;;5009091;28;20036;-62
2023/01/27 09:03:47;;;;;;;15.43;7.50;;;;;;;;;;5009426;28;20474;-62
2023/01/27 09:06:14;;;;;;;12.18;6.82;;;;;;;;;;5010090;28;20073;-62
2023/01/27 09:08:40;;;;;;;12.55;7.03;;;;;;;;;;5009076;28;20029;-62
2023/01/27 09:11:11;;;;;;;10.68;6.10;;;;;;;;;;5010936;28;20040;-61
2023/01/27 09:13:36;;;;;;;11.75;6.40;;;;;;;;;;5008944;28;20540;-62
2023/01/27 09:16:02;;;;;;;10.68;6.40;;;;;;;;;;5006099;28;20041;-61
2023/01/27 09:18:27;;;;;;;12.23;6.80;;;;;;;;;;5010393;28;20076;-62
2023/01/27 09:20:53;;;;;;;12.32;6.07;;;;;;;;;;5010575;28;20443;-62
2023/01/27 09:23:18;;;;;;;11.45;6.53;;;;;;;;;;5009943;28;20037;-62
2023/01/27 09:25:44;;;;;;;11.55;6.47;;;;;;;;;;5009614;28;20076;-61
2023/01/27 09:28:15;;;;;;;11.20;6.28;;;;;;;;;;5010552;28;20394;-62
2023/01/27 09:30:42;;;;;;;13.35;6.60;;;;;;;;;;5009509;28;20467;-61
2023/01/27 09:33:07;;;;;;;12.90;6.75;;;;;;;;;;5010390;28;20034;-62
2023/01/27 09:35:48;;;;;;;13.15;6.55;;;;;;;;;;5008799;28;20042;-63
2023/01/27 09:38:18;;;;;;;10.43;5.87;;;;;;;;;;5009211;28;20029;-62
2023/01/27 09:41:04;;;;;;;12.30;6.38;;;;;;;;;;5009833;28;20033;-61
2023/01/27 09:43:32;;;;;;;12.18;6.10;;;;;;;;;;5008958;28;20137;-61
2023/01/27 09:46:37;;;;;;;10.95;5.85;;;;;;;;;;5012844;28;20033;-61
2023/01/27 09:49:33;;;;;;;10.65;6.13;;;;;;;;;;5008829;28;20041;-62
2023/01/27 09:51:58;;;;;;;13.02;6.30;;;;;;;;;;5012756;28;20030;-61
2023/01/27 09:54:50;;;;;;;10.88;6.10;;;;;;;;;;5008048;28;20045;-61
2023/01/27 09:57:22;;;;;;;10.57;5.82;;;;;;;;;;5003270;28;20129;-63
2023/01/27 09:59:59;;;;;;;11.07;6.25;;;;;;;;;;5014012;28;20032;-63
2023/01/27 10:02:39;;;;;;;10.00;5.55;;;;;;;;;;5012899;28;20042;-62
2023/01/27 10:05:26;;;;;;;13.53;6.70;;;;;;;;;;5012932;28;20088;-62
2023/01/27 10:08:10;;;;;;;13.40;6.50;;;;;;;;;;5010656;28;20028;-61
2023/01/27 10:10:58;;;;;;;11.50;5.85;;;;;;;;;;5008621;28;20380;-62
2023/01/27 10:13:33;;;;;;;11.95;5.55;;;;;;;;;;5008806;28;20046;-61
2023/01/27 10:16:13;;;;;;;10.93;6.18;;;;;;;;;;5012125;28;20124;-61
2023/01/27 10:18:38;;;;;;;12.02;6.30;;;;;;;;;;5011561;28;20475;-63
2023/01/27 10:21:18;;;;;;;10.00;5.82;;;;;;;;;;5014068;28;20034;-60
2023/01/27 10:24:09;;;;;;;11.52;5.85;;;;;;;;;;5011770;28;20030;-63
2023/01/27 10:26:34;;;;;;;;;;;;;;;;;;5011896;28;20034;-62
2023/01/27 10:29:25;;;;;;;12.20;6.03;;;;;;;;;;4994311;28;19909;-62
2023/01/27 10:32:00;;;;;;;10.63;6.07;;;;;;;;;;4996484;28;20027;-63
2023/01/27 10:34:29;;;;;;;11.63;5.63;;;;;;;;;;4994416;28;20125;-63
2023/01/27 10:37:24;;;;;;;10.55;5.93;;;;;;;;;;4994991;28;20400;-62
2023/01/27 10:40:13;;;;;;;9.68;5.38;;;;;;;;;;4999632;28;20097;-60
2023/01/27 10:43:09;;;;;;;13.15;6.95;;;;;;;;;;5010167;28;20053;-61
2023/01/27 10:45:46;;;;;;;10.15;5.55;;;;;;;;;;5004160;28;20395;-62
2023/01/27 10:48:17;;;;;;;11.90;5.80;;;;;;;;;;5012646;28;20062;-62
2023/01/27 10:50:48;;;;;;;;;;;;;;;;;;5013010;28;20442;-61
2023/01/27 10:53:23;;;;;;;9.18;5.20;;;;;;;;;;5012325;28;19913;-61
2023/01/27 10:55:58;;;;;;;9.18;5.05;;;;;;;;;;5004460;28;20048;-62
2023/01/27 10:58:43;;;;;;;9.65;4.85;;;;;;;;;;5010892;28;20065;-62
2023/01/27 11:01:12;;;;;;;8.35;4.72;;;;;;;;;;5011729;28;20503;-64
2023/01/27 11:03:49;;;;;;;8.25;5.00;;;;;;;;;;5012125;28;20033;-62
2023/01/27 11:06:20;;;;;;;8.60;4.63;;;;;;;;;;5013161;28;20045;-61
2023/01/27 11:08:52;;;;;;;7.15;4.35;;;;;;;;;;5011622;28;20029;-63
2023/01/27 11:14:14;;;;;;;8.35;4.28;;;;;;;;;;5011693;28;20049;-63
2023/01/27 11:16:45;;;;;;;7.78;4.60;;;;;;;;;;5012261;28;20030;-63
2023/01/27 11:19:57;;;;;;;8.10;4.60;;;;;;;;;;5012431;28;20026;-61
2023/01/27 11:22:29;;;;;;;8.68;4.28;;;;;;;;;;5002307;28;20045;-62
2023/01/27 11:25:04;;;;;;;8.13;4.05;;;;;;;;;;5012120;28;20593;-62
2023/01/27 11:27:55;;;;;;;7.25;4.40;;;;;;;;;;5010850;28;20037;-61
2023/01/27 11:30:30;;;;;;;7.38;4.30;;;;;;;;;;5010684;28;20092;-62
2023/01/27 11:33:15;;;;;;;6.60;4.55;;;;;;;;;;5011018;28;20038;-60
2023/01/27 11:35:40;;;;;;;7.05;4.28;;;;;;;;;;5011220;28;20121;-61
2023/01/27 11:38:13;;;;;;;6.65;4.10;;;;;;;;;;5012158;28;20117;-60
2023/01/27 11:40:40;;;;;;;6.90;4.10;;;;;;;;;;5009914;28;20038;-64
2023/01/27 11:43:06;;;;;;;6.53;4.05;;;;;;;;;;5010368;28;20037;-60
2023/01/27 11:45:34;;;;;;;5.43;3.38;;;;;;;;;;5011145;28;20041;-60
2023/01/27 11:48:02;;;;;;;6.22;3.60;;;;;;;;;;5009966;28;20049;-62
2023/01/27 11:50:31;;;;;;;5.63;3.63;;;;;;;;;;5005315;28;21749;-63
2023/01/27 11:53:15;;;;;;;5.03;3.40;;;;;;;;;;5010603;28;20037;-62
2023/01/27 11:55:46;;;;;;;5.55;3.45;;;;;;;;;;5010529;28;20459;-62
2023/01/27 11:58:33;;;;;;;6.63;3.70;;;;;;;;;;5012206;28;20032;-61
2023/01/27 12:01:01;;;;;;;6.90;3.70;;;;;;;;;;5010051;28;20483;-62
2023/01/27 12:03:36;;;;;;;5.88;3.65;;;;;;;;;;5011164;28;20088;-63
2023/01/27 12:06:09;;;;;;;6.88;3.70;;;;;;;;;;5011495;28;20112;-62
2023/01/27 12:08:40;;;;;;;5.90;3.90;;;;;;;;;;5009151;28;20179;-62
2023/01/27 12:11:21;;;;;;;5.43;3.78;;;;;;;;;;5004443;28;20042;-61
2023/01/27 12:14:00;;;;;;;5.60;3.65;;;;;;;;;;5007481;28;20029;-61
2023/01/27 12:16:40;;;;;;;4.50;3.13;;;;;;;;;;5010805;28;20034;-61
2023/01/27 12:19:26;;;;;;;4.75;3.10;;;;;;;;;;5011925;28;20479;-61
2023/01/27 12:21:55;;;;;;;4.28;3.03;;;;;;;;;;5010054;28;20030;-62
2023/01/27 12:24:30;;;;;;;4.63;3.13;;;;;;;;;;5008779;28;20034;-63
2023/01/27 12:26:56;;;;;;;4.30;2.90;;;;;;;;;;5006967;28;20692;-61
2023/01/27 12:29:45;;;;;;;5.93;3.30;;;;;;;;;;5007240;28;20057;-61
2023/01/27 12:32:45;;;;;;;4.40;2.88;;;;;;;;;;5010660;28;20022;-62
2023/01/27 12:35:22;;;;;;;4.22;2.75;;;;;;;;;;4993022;28;20360;-61
2023/01/27 12:37:53;;;;;;;4.45;3.05;;;;;;;;;;4995240;28;20034;-62
2023/01/27 12:40:24;;;;;;;3.83;2.63;;;;;;;;;;5011301;28;20116;-61
2023/01/27 12:43:04;;;;;;;3.55;2.60;;;;;;;;;;5009142;28;20041;-61
2023/01/27 12:45:37;;;;;;;4.60;2.72;;;;;;;;;;5011500;28;20514;-61
2023/01/27 12:48:08;;;;;;;5.18;3.25;;;;;;;;;;5008391;28;20112;-61
2023/01/27 12:50:40;;;;;;;4.13;2.70;;;;;;;;;;5010669;28;20065;-60
2023/01/27 12:53:11;;;;;;;4.40;2.92;;;;;;;;;;5010559;28;20038;-61
2023/01/27 12:55:49;;;;;;;3.88;2.60;;;;;;;;;;5009232;28;20030;-64
2023/01/27 12:58:39;;;;;;;4.07;2.20;;;;;;;;;;5010114;28;20041;-63
2023/01/27 13:01:19;;;;;;;4.13;2.67;;;;;;;;;;5007392;28;20044;-62
2023/01/27 13:03:49;;;;;;;5.07;2.90;;;;;;;;;;5009280;28;20034;-62
2023/01/27 13:06:18;;;;;;;4.80;2.60;;;;;;;;;;5011851;28;20041;-61
2023/01/27 13:08:45;;;;;;;3.10;2.33;;;;;;;;;;4997649;28;20034;-61
2023/01/27 13:11:11;;;;;;;3.70;2.75;;;;;;;;;;5001672;28;20034;-61
2023/01/27 13:13:47;;;;;;;4.78;3.00;;;;;;;;;;5010765;28;20045;-63
2023/01/27 13:16:26;;;;;;;4.60;3.00;;;;;;;;;;5010631;28;20044;-61
2023/01/27 13:18:54;;;;;;;4.25;2.70;;;;;;;;;;5009146;28;20060;-61
2023/01/27 13:21:24;;;;;;;5.43;2.97;;;;;;;;;;5011873;28;20113;-63
2023/01/27 13:23:51;;;;;;;5.20;2.85;;;;;;;;;;5013274;28;20048;-60
2023/01/27 13:26:29;;;;;;;5.00;3.08;;;;;;;;;;5012539;28;20192;-61
2023/01/27 13:29:33;;;;;;;4.57;2.55;;;;;;;;;;5014322;28;20499;-62
2023/01/27 13:32:19;;;;;;;4.60;2.80;;;;;;;;;;4991007;28;20038;-61
2023/01/27 13:35:05;;;;;;;5.10;2.97;;;;;;;;;;4986618;28;20042;-62
2023/01/27 13:37:36;;;;;;;4.75;2.70;;;;;;;;;;4972884;28;20061;-61
2023/01/27 13:40:19;;;;;;;4.88;2.55;;;;;;;;;;4978642;28;20065;-61
2023/01/27 13:43:01;;;;;;;5.60;2.90;;;;;;;;;;4991408;28;20121;-61
2023/01/27 13:45:35;;;;;;;4.65;3.10;;;;;;;;;;4991890;28;20046;-61
2023/01/27 13:48:17;;;;;;;5.75;3.70;;;;;;;;;;4991661;28;20069;-61
2023/01/27 13:50:46;;;;;;;5.28;3.38;;;;;;;;;;4991830;28;20061;-63
2023/01/27 13:53:16;;;;;;;6.40;3.70;;;;;;;;;;4991769;28;20427;-63
2023/01/27 13:56:13;;;;;;;5.20;3.60;;;;;;;;;;4991132;28;20411;-62
2023/01/27 13:59:04;;;;;;;5.25;3.67;;;;;;;;;;4989402;28;20033;-62
2023/01/27 14:01:49;;;;;;;5.60;3.63;;;;;;;;;;4992429;28;20039;-62
2023/01/27 14:04:33;;;;;;;5.22;3.40;;;;;;;;;;5010516;28;20457;-62
2023/01/27 14:07:20;;;;;;;5.32;3.63;;;;;;;;;;5013551;28;20021;-62
2023/01/27 14:09:55;;;;;;;5.68;3.63;;;;;;;;;;4993902;28;20030;-61
2023/01/27 14:12:59;;;;;;;6.80;3.80;;;;;;;;;;5003726;28;20026;-61
2023/01/27 14:15:41;;;;;;;7.05;3.60;;;;;;;;;;5002940;28;20100;-61
2023/01/27 14:18:09;;;;;;;6.45;4.40;;;;;;;;;;5010897;28;20041;-61
2023/01/27 14:20:50;;;;;;;5.88;3.83;;;;;;;;;;5013943;28;20030;-60
2023/01/27 14:23:36;;;;;;;6.85;3.65;;;;;;;;;;5011126;28;20038;-60
2023/01/27 14:26:15;;;;;;;5.28;3.30;;;;;;;;;;5014245;28;20029;-61
2023/01/27 14:29:07;;;;;;;6.38;3.65;;;;;;;;;;5013029;28;20045;-62
2023/01/27 14:31:40;;;;;;;5.85;3.80;;;;;;;;;;5013186;28;20030;-60
2023/01/27 14:34:56;;;;;;;5.88;3.40;;;;;;;;;;5012908;28;20109;-60
2023/01/27 14:38:03;;;;;;;5.53;3.55;;;;;;;;;;5002319;28;20046;-61
2023/01/27 14:40:36;;;;;;;5.95;3.80;;;;;;;;;;4995022;28;20046;-62
2023/01/27 14:43:20;;;;;;;5.63;3.88;;;;;;;;;;5006597;28;20029;-63
2023/01/27 14:45:57;;;;;;;6.00;3.90;;;;;;;;;;5011217;28;20060;-62
2023/01/27 14:48:54;;;;;;;6.28;3.63;;;;;;;;;;5006278;28;20094;-63
2023/01/27 14:51:41;;;;;;;7.07;3.80;;;;;;;;;;5013402;28;20383;-62
2023/01/27 14:54:56;;;;;;;5.32;3.40;;;;;;;;;;5012161;28;20395;-62
2023/01/27 14:57:27;;;;;;;6.70;3.60;;;;;;;;;;4995987;28;20483;-63
2023/01/27 15:00:13;;;;;;;5.13;3.58;;;;;;;;;;5011080;28;20064;-63
2023/01/27 15:02:56;;;;;;;5.70;3.65;;;;;;;;;;5011874;28;20022;-62
2023/01/27 15:05:28;;;;;;;6.15;3.80;;;;;;;;;;5013456;28;20069;-62
2023/01/27 15:07:56;;;;;;;5.70;3.60;;;;;;;;;;5010581;28;20052;-62
2023/01/27 15:10:26;;;;;;;5.35;3.42;;;;;;;;;;5013387;28;20459;-63
2023/01/27 15:13:04;;;;;;;5.13;3.30;;;;;;;;;;5007588;28;20054;-62
2023/01/27 15:15:51;;;;;;;4.88;2.92;;;;;;;;;;4997027;28;20145;-62
2023/01/27 15:18:27;;;;;;;4.72;2.88;;;;;;;;;;5002640;28;20438;-63
2023/01/27 15:21:10;;;;;;;4.03;2.83;;;;;;;;;;5012344;28;20045;-62
2023/01/27 15:23:58;;;;;;;4.88;3.08;;;;;;;;;;5012340;28;20034;-62
2023/01/27 15:26:26;;;;;;;4.47;3.17;;;;;;;;;;5007681;28;20057;-62
2023/01/27 15:28:52;;;;;;;5.30;3.13;;;;;;;;;;4995083;28;20037;-62
2023/01/27 15:31:18;;;;;;;4.88;3.40;;;;;;;;;;5010798;28;20038;-62
2023/01/27 15:34:01;;;;;;;5.18;3.40;;;;;;;;;;5012347;28;20391;-61
2023/01/27 15:36:27;;;;;;;6.68;3.53;;;;;;;;;;5012614;28;20050;-63
2023/01/27 15:39:02;;;;;;;7.13;3.35;;;;;;;;;;5011903;28;20477;-63